METAR Formatted Surface Weather Observation
Issued by NWS

Home | Current Version | Previous Version | Text Only | Print | Product List | Glossary On
Versions: 1 2 3 4 5 6 7 8 9 10 11 12 13 14 15 16 17 18 19 20 21 22 23 24 25 26 27 28 29 30 31 32 33 34 35 36 37 38 39 40 41 42 43 44 45 46 47 48 49 50
000
SAUS44 KMAF 050558 COR
MTR6R6
METAR K6R6 050553Z AUTO 12026G34KT 22/18 A2986 RMK AO1 PK WND
12036/0458 SLP077 T02170178 10250 20217 403000206 50005



USA.gov is the U.S. government's official web portal to all federal, state and local government web resources and services.